Buoy 41910

sailwx.info

Track history (hours):
 
Tides and Currents Weather Stations Pressure Air Temp Water Temp Dewpoint Dewpoint Depression Visibility Wind Speed Wind Dir Waves Ship Positions

Drifting buoy 41910

Last reported at 2014-Jul-30 08:11 UTC. Time now 2014-Jul-30 09:11 UTC.
Position N 33°37' W 052°24'.

Water temperature 27.6 ° C

Date/timePositionNaut miles runAvg speedWind from/ knotsBaromVisibWave heightAir tempDewpointWater temp
2014-Jul-30 08:11N 33°37' W 052°24'0 0.0 27.6
2014-Jul-30 07:13N 33°37' W 052°24'1 1.6 27.6
2014-Jul-30 06:28N 33°36' W 052°23'0 0.0 27.6
2014-Jul-29 20:38N 33°36' W 052°23'0 0.2 28.1
2014-Jul-29 19:52N 33°36' W 052°23'1 0.6 28.1
2014-Jul-29 18:53N 33°36' W 052°23'0 0.0 28.2
2014-Jul-29 18:05N 33°36' W 052°23'475.1 28.2
2014-Jul-29 18:02N 33°32' W 052°22'0 0.0
2014-Jul-29 10:54N 33°32' W 052°21'0 0.0 27.6
2014-Jul-29 10:00N 33°32' W 052°21'0 0.3 27.6
2014-Jul-29 09:14N 33°32' W 052°21'0 0.1 27.6
2014-Jul-29 08:23N 33°32' W 052°21'0 3.8 27.6
2014-Jul-29 08:18N 33°32' W 052°22'0 0.0 27.6
2014-Jul-29 07:38N 33°32' W 052°22'1 1.0 27.7
2014-Jul-29 06:46N 33°31' W 052°21'1 9.5 27.7
2014-Jul-29 06:38N 33°30' W 052°21'0 0.0 27.7
2014-Jul-28 21:03N 33°30' W 052°21'0 0.3 30.2
2014-Jul-28 20:02N 33°30' W 052°21'0 0.6 30.6
2014-Jul-28 19:23N 33°29' W 052°21'1 4.7 30.8
2014-Jul-28 19:15N 33°29' W 052°22'0 0.0 30.8
2014-Jul-28 18:20N 33°29' W 052°22'3 0.8 30.8
2014-Jul-28 13:57N 33°26' W 052°23'2 1.3 28.8
2014-Jul-28 12:09N 33°25' W 052°20'0 0.0 27.9
2014-Jul-28 11:16N 33°25' W 052°20'0 0.4 27.8
2014-Jul-28 10:15N 33°25' W 052°20'0 0.6 27.7
2014-Jul-28 09:45N 33°25' W 052°20'1 6.6 27.6
2014-Jul-28 09:40N 33°25' W 052°19'0 0.0 27.6
2014-Jul-28 08:51N 33°25' W 052°19'0 1.3 27.6
2014-Jul-28 08:34N 33°25' W 052°19'0 0.6 27.6
2014-Jul-28 08:28N 33°25' W 052°19'0 0.0 27.6
2014-Jul-28 07:57N 33°25' W 052°19'0 0.0 27.7
2014-Jul-28 07:45N 33°25' W 052°19'0 0.0
2014-Jul-28 07:09N 33°25' W 052°19'0 0.0 27.8
2014-Jul-28 06:57N 33°25' W 052°19'0 1.6 27.8
2014-Jul-28 06:50N 33°25' W 052°19'0 0.0 27.8
2014-Jul-28 06:09N 33°25' W 052°19'1 6.1 27.8
2014-Jul-28 06:02N 33°26' W 052°20'0 0.0 27.8
2014-Jul-28 05:59N 33°26' W 052°20'0 0.1 27.8
2014-Jul-28 04:26N 33°26' W 052°20'114.1 27.9
2014-Jul-28 04:20N 33°24' W 052°21'0 0.0 27.9
2014-Jul-28 02:21N 33°24' W 052°21'0 3.1 28.0
2014-Jul-28 02:17N 33°24' W 052°21'0 0.0 28.0
2014-Jul-28 01:30N 33°24' W 052°21'1 0.6 28.3
2014-Jul-28 00:42N 33°24' W 052°21'0 1.5 28.6
2014-Jul-28 00:38N 33°24' W 052°21'1 0.6 28.6
2014-Jul-27 23:17N 33°23' W 052°21'0 1.3 28.8
2014-Jul-27 23:01N 33°23' W 052°21'1 6.0 28.9
2014-Jul-27 22:56N 33°23' W 052°21'0 0.0 28.9
2014-Jul-27 21:40N 33°23' W 052°21'1 2.6 29.3
2014-Jul-27 21:22N 33°22' W 052°20'0 0.0 29.3
2014-Jul-27 20:14N 33°22' W 052°20'1 1.5 29.6
2014-Jul-27 19:47N 33°22' W 052°21'0 4.5
2014-Jul-27 19:41N 33°22' W 052°21'0 0.0 29.7
2014-Jul-27 18:32N 33°22' W 052°21'0 3.1 29.6
2014-Jul-27 18:23N 33°21' W 052°21'0 0.0 29.6
2014-Jul-27 17:43N 33°21' W 052°21'1 0.6 29.4
2014-Jul-27 16:03N 33°20' W 052°21'1 0.9 28.8
2014-Jul-27 15:01N 33°19' W 052°21'0 0.0 28.3
2014-Jul-27 14:18N 33°19' W 052°21'1 3.3 27.9
2014-Jul-27 14:09N 33°19' W 052°21'0 0.0 27.9
2014-Jul-27 12:34N 33°19' W 052°21'0 5.9 27.4
2014-Jul-27 12:30N 33°19' W 052°20'0 0.0 27.4
2014-Jul-27 11:40N 33°19' W 052°20'125.5 27.4
2014-Jul-27 11:37N 33°18' W 052°19'0 0.0 27.4
2014-Jul-27 11:01N 33°18' W 052°19'0 0.3 27.4
2014-Jul-27 10:05N 33°19' W 052°19'0 8.4 27.4
2014-Jul-27 10:02N 33°18' W 052°20'0 0.0 27.4
2014-Jul-27 09:24N 33°18' W 052°20'1 0.8 27.4
2014-Jul-27 08:47N 33°18' W 052°19'0 4.9
2014-Jul-27 08:42N 33°19' W 052°20'0 0.0 27.4
2014-Jul-27 08:26N 33°19' W 052°20'0 0.4 27.4
2014-Jul-27 07:57N 33°19' W 052°19'0 0.0 27.4
2014-Jul-27 07:42N 33°19' W 052°19'0 0.5 27.4
2014-Jul-27 07:02N 33°19' W 052°20'0 0.0 27.4
2014-Jul-27 06:59N 33°19' W 052°20'0 0.0 27.4
2014-Jul-27 06:20N 33°19' W 052°20'1 4.4 27.4
2014-Jul-27 06:12N 33°18' W 052°20'0 0.0 27.4
2014-Jul-27 04:38N 33°18' W 052°20'1 9.1 27.5
2014-Jul-27 04:30N 33°17' W 052°21'0 0.0 27.5
2014-Jul-27 01:51N 33°17' W 052°21'0 0.6 27.6
2014-Jul-27 01:04N 33°17' W 052°21'0 0.0 27.6
2014-Jul-27 00:59N 33°17' W 052°21'1 0.7 27.6
2014-Jul-27 00:16N 33°16' W 052°22'0 0.5 27.6
2014-Jul-27 00:10N 33°16' W 052°22'0 6.5 27.6
2014-Jul-27 00:07N 33°17' W 052°21'1 1.5 27.6
2014-Jul-26 23:46N 33°16' W 052°21'0 0.0 27.6
2014-Jul-26 23:23N 33°16' W 052°21'1 5.8 27.6
2014-Jul-26 23:16N 33°15' W 052°21'1 0.5 27.6
2014-Jul-26 22:08N 33°15' W 052°21'1 1.9 27.8
2014-Jul-26 21:47N 33°14' W 052°21'1 0.4 27.8
2014-Jul-26 20:25N 33°14' W 052°21'0 0.0 27.9
2014-Jul-26 20:23N 33°14' W 052°21'1 6.3 27.9
2014-Jul-26 20:13N 33°14' W 052°22'131.3 28.0
2014-Jul-26 20:11N 33°14' W 052°21'0 0.0
2014-Jul-26 18:44N 33°14' W 052°21'0 7.0 27.9
2014-Jul-26 18:40N 33°14' W 052°20'0 0.0 27.9
2014-Jul-26 17:53N 33°14' W 052°20'0 0.2 28.0
2014-Jul-26 16:15N 33°13' W 052°20'0 2.3 27.8
2014-Jul-26 16:06N 33°13' W 052°20'0 0.0 27.8
2014-Jul-26 14:37N 33°13' W 052°20'1 5.0 27.4
2014-Jul-26 14:30N 33°13' W 052°19'0 0.2 27.4
2014-Jul-26 13:46N 33°13' W 052°19'0 0.2 27.3
2014-Jul-26 12:58N 33°13' W 052°19'0 1.5 27.2
2014-Jul-26 12:48N 33°13' W 052°19'0 0.3
2014-Jul-26 11:57N 33°13' W 052°19'0 0.0 27.2
2014-Jul-26 10:34N 33°13' W 052°19'0 1.7 27.2
2014-Jul-26 10:27N 33°13' W 052°19'0 0.0 27.2
2014-Jul-26 09:55N 33°13' W 052°19'0 0.0 27.2
2014-Jul-26 09:52N 33°13' W 052°19'0 0.1 27.2
2014-Jul-26 09:02N 33°13' W 052°19'0 0.9 27.2
2014-Jul-26 08:57N 33°13' W 052°19'0 2.0 27.2
2014-Jul-26 08:54N 33°13' W 052°19'0 8.5 27.2
2014-Jul-26 08:51N 33°12' W 052°19'0 0.0 27.2
2014-Jul-26 08:12N 33°12' W 052°19'0 0.1 27.2
2014-Jul-26 06:30N 33°12' W 052°20'1 5.0 27.2
2014-Jul-26 06:23N 33°12' W 052°20'0 0.0 27.2
2014-Jul-26 04:48N 33°12' W 052°20'219.4 27.2
2014-Jul-26 04:42N 33°10' W 052°21'0 0.0 27.2
2014-Jul-26 01:24N 33°10' W 052°21'0 0.5 27.3
2014-Jul-26 01:18N 33°10' W 052°21'0 0.5 27.3
2014-Jul-26 00:36N 33°10' W 052°21'0 9.8 27.3
2014-Jul-26 00:33N 33°10' W 052°21'2 1.0 27.3
2014-Jul-25 22:43N 33°08' W 052°20'0 0.0 27.3
2014-Jul-25 20:56N 33°08' W 052°20'110.3 27.4
2014-Jul-25 20:53N 33°08' W 052°19'0 0.0 27.4
2014-Jul-25 20:35N 33°08' W 052°19'0 0.0 27.4
2014-Jul-25 20:34N 33°08' W 052°19'1 0.4 27.4
2014-Jul-25 18:56N 33°07' W 052°19'0 0.0 27.5
2014-Jul-25 18:53N 33°07' W 052°19'0 0.4 27.5
2014-Jul-25 18:02N 33°08' W 052°18'1 0.6 27.5
2014-Jul-25 16:23N 33°08' W 052°17'0 0.3 27.4
2014-Jul-25 14:57N 33°08' W 052°18'0 0.0 27.3
2014-Jul-25 13:19N 33°08' W 052°18'0 0.0
2014-Jul-25 13:15N 33°08' W 052°18'1 7.1 27.1
2014-Jul-25 13:09N 33°08' W 052°17'1 1.0 27.1
2014-Jul-25 12:16N 33°09' W 052°18'0 0.0 27.1
2014-Jul-25 10:25N 33°09' W 052°18'0 0.3 27.0
2014-Jul-25 09:19N 33°09' W 052°18'0 1.2 27.1
2014-Jul-25 09:15N 33°09' W 052°18'0 1.0 27.1
2014-Jul-25 09:09N 33°09' W 052°18'110.7 27.1
2014-Jul-25 09:03N 33°09' W 052°19'1 3.2 27.1
2014-Jul-25 08:48N 33°09' W 052°18'1 0.6 27.1
2014-Jul-25 07:27N 33°09' W 052°19'0 0.5 27.1
2014-Jul-25 07:03N 33°08' W 052°19'0 0.0 27.1
2014-Jul-25 06:40N 33°08' W 052°19'1 8.6 27.1
2014-Jul-25 06:33N 33°08' W 052°20'0 0.0 27.1
2014-Jul-25 05:00N 33°08' W 052°20'216.5 27.1
2014-Jul-25 04:53N 33°06' W 052°20'1 0.3 27.1
2014-Jul-25 00:57N 33°05' W 052°20'0 0.0 27.2
2014-Jul-25 00:05N 33°05' W 052°20'0 0.9 27.2
2014-Jul-25 00:00N 33°05' W 052°20'2 2.1 27.2
2014-Jul-24 23:17N 33°04' W 052°19'1 7.0 27.2
2014-Jul-24 23:09N 33°04' W 052°20'1 0.6 27.2
2014-Jul-24 21:33N 33°04' W 052°19'1 1.2 27.2
2014-Jul-24 21:02N 33°04' W 052°18'1 1.4 27.2
2014-Jul-24 20:41N 33°03' W 052°18'0 0.0 27.3
2014-Jul-24 19:13N 33°03' W 052°18'0 0.0 27.3
2014-Jul-24 19:04N 33°03' W 052°18'1 0.9 27.3
2014-Jul-24 18:17N 33°04' W 052°17'2 1.0 27.3
2014-Jul-24 16:37N 33°05' W 052°16'1 0.4 27.2
2014-Jul-24 14:50N 33°05' W 052°16'0 0.6
2014-Jul-24 14:25N 33°05' W 052°16'0 0.0 27.1
2014-Jul-24 13:40N 33°05' W 052°16'2 1.9 27.0
2014-Jul-24 12:41N 33°05' W 052°19'0 0.0 27.0
2014-Jul-24 11:51N 33°05' W 052°19'0 0.0
2014-Jul-24 10:54N 33°05' W 052°19'0 0.2 26.9
2014-Jul-24 09:43N 33°05' W 052°19'0 7.0 26.9
2014-Jul-24 09:40N 33°05' W 052°19'0 0.0 26.9
2014-Jul-24 09:21N 33°05' W 052°19'0 0.0 26.9
2014-Jul-24 09:19N 33°05' W 052°19'1 0.6 26.9
2014-Jul-24 07:55N 33°04' W 052°20'0 0.0 27.0
2014-Jul-24 07:37N 33°04' W 052°20'0 6.3 27.0
2014-Jul-24 07:33N 33°04' W 052°20'1 1.1 27.0
2014-Jul-24 06:45N 33°03' W 052°20'0 0.0 27.0
2014-Jul-24 05:10N 33°03' W 052°20'215.2 27.0
2014-Jul-24 05:03N 33°02' W 052°19'0 0.0 27.0
2014-Jul-24 02:05N 33°02' W 052°19'0 4.5 27.0
2014-Jul-24 01:59N 33°02' W 052°18'0 0.5 27.0
2014-Jul-24 01:15N 33°01' W 052°18'1 0.5 27.0
2014-Jul-24 00:18N 33°01' W 052°19'1 1.4 27.0
2014-Jul-23 23:42N 33°01' W 052°18'1 5.4 27.0
2014-Jul-23 23:29N 33°01' W 052°17'0 0.0 27.0
2014-Jul-23 22:03N 33°01' W 052°17'0 0.6 27.0
2014-Jul-23 21:26N 33°01' W 052°17'0 0.2 27.0
2014-Jul-23 19:47N 33°01' W 052°17'0 0.4 27.1
2014-Jul-23 19:17N 33°01' W 052°16'115.3 27.1
2014-Jul-23 19:12N 33°03' W 052°16'0 0.0 27.1
2014-Jul-23 18:24N 33°03' W 052°16'0 0.0 27.0
2014-Jul-23 17:35N 33°03' W 052°16'1 0.6 27.1
2014-Jul-23 16:45N 33°02' W 052°16'1 0.4 27.0
2014-Jul-23 15:04N 33°03' W 052°16'2 1.9 27.0
2014-Jul-23 13:58N 33°03' W 052°19'1 1.7 26.9
2014-Jul-23 13:08N 33°03' W 052°17'1 8.5 26.9
2014-Jul-23 12:58N 33°03' W 052°19'0 0.0 26.9
2014-Jul-23 12:11N 33°03' W 052°19'0 0.0 26.9
2014-Jul-23 10:08N 33°03' W 052°19'0 0.4 26.9
2014-Jul-23 09:49N 33°03' W 052°19'0 1.1 26.9
2014-Jul-23 09:31N 33°03' W 052°19'110.3 26.9
2014-Jul-23 09:28N 33°02' W 052°19'0 0.0 26.9
2014-Jul-23 08:08N 33°02' W 052°19'0 0.8 27.0
2014-Jul-23 07:49N 33°02' W 052°20'0 4.8 27.0
2014-Jul-23 07:46N 33°02' W 052°20'0 0.0 27.0
2014-Jul-23 07:04N 33°02' W 052°20'1 4.3 27.0
2014-Jul-23 06:55N 33°01' W 052°20'0 0.0 27.0
2014-Jul-23 06:09N 33°01' W 052°20'0 0.0 27.0
2014-Jul-23 05:19N 33°01' W 052°20'217.8 27.0
2014-Jul-23 05:13N 33°00' W 052°19'0 0.0 27.0
2014-Jul-23 03:37N 33°00' W 052°19'0 0.0
2014-Jul-23 02:22N 33°00' W 052°19'111.1 27.0
2014-Jul-23 02:19N 32°60' W 052°18'0 0.6 27.0
2014-Jul-23 01:31N 33°00' W 052°19'0 0.0 27.0
2014-Jul-23 00:46N 33°00' W 052°19'0 0.4 27.1
2014-Jul-22 23:57N 32°60' W 052°18'0 1.8 27.1
2014-Jul-22 23:49N 32°60' W 052°18'0 0.0 27.1
2014-Jul-22 23:04N 32°60' W 052°18'0 2.0 27.1
2014-Jul-22 22:57N 32°60' W 052°18'0 0.1 27.1
2014-Jul-22 21:49N 32°60' W 052°18'1 0.9 27.1
2014-Jul-22 21:03N 32°60' W 052°17'1 4.9 27.1
2014-Jul-22 20:55N 32°60' W 052°18'1 5.6 27.2
2014-Jul-22 20:48N 32°60' W 052°17'0 0.0 27.2
2014-Jul-22 20:12N 32°60' W 052°17'0 7.0 27.2
2014-Jul-22 20:11N 32°60' W 052°17'0 0.2 27.2
2014-Jul-22 19:29N 32°60' W 052°17'1 0.8 27.2
2014-Jul-22 18:38N 33°00' W 052°17'0 1.2 27.2
2014-Jul-22 18:35N 33°01' W 052°17'0 0.6 27.2
2014-Jul-22 18:29N 33°00' W 052°17'0 0.3 27.2
2014-Jul-22 17:48N 33°01' W 052°18'0 0.4 27.2
2014-Jul-22 16:56N 33°01' W 052°18'0 0.0 27.2
2014-Jul-22 15:15N 33°01' W 052°18'0 0.0 27.1
2014-Jul-22 14:21N 33°01' W 052°18'210.4 27.1
2014-Jul-22 14:12N 33°01' W 052°19'0 0.0
2014-Jul-22 12:33N 33°01' W 052°19'0 0.0 27.1
2014-Jul-22 11:41N 33°01' W 052°19'1 0.4 27.1
2014-Jul-22 10:31N 33°01' W 052°20'1 2.2 27.1
2014-Jul-22 10:17N 33°01' W 052°19'1 0.9 27.1
2014-Jul-22 09:43N 33°01' W 052°20'1 9.6 27.1
2014-Jul-22 09:38N 33°01' W 052°20'0 0.2 27.1
2014-Jul-22 08:56N 33°01' W 052°20'1 0.8 27.2
2014-Jul-22 07:56N 33°00' W 052°21'0 0.0 27.2
2014-Jul-22 07:14N 33°00' W 052°21'1 5.3 27.2
2014-Jul-22 07:07N 32°59' W 052°20'0 0.0 27.2
2014-Jul-22 06:22N 32°59' W 052°20'0 3.8 27.2
2014-Jul-22 06:17N 32°59' W 052°21'0 0.0 27.2
2014-Jul-22 05:29N 32°59' W 052°21'1 0.7 27.2
2014-Jul-22 03:50N 32°58' W 052°21'231.6
2014-Jul-22 03:47N 32°58' W 052°19'0 0.0 27.4
2014-Jul-22 01:54N 32°58' W 052°19'0 0.0 27.4
2014-Jul-22 01:07N 32°58' W 052°19'0 0.3 27.4
2014-Jul-22 00:18N 32°58' W 052°19'0 0.0 27.4
2014-Jul-21 23:27N 32°58' W 052°19'0 2.3 27.5
2014-Jul-21 23:19N 32°58' W 052°18'0 0.0 27.5
2014-Jul-21 23:06N 32°58' W 052°18'0 0.0 27.5
2014-Jul-21 22:10N 32°58' W 052°18'0 0.0 27.5
2014-Jul-21 21:27N 32°58' W 052°18'0 0.7 27.5
2014-Jul-21 21:18N 32°58' W 052°18'0 0.0 27.5
2014-Jul-21 21:16N 32°58' W 052°18'0 0.2 27.5
2014-Jul-21 20:37N 32°58' W 052°18'0 7.2 27.5
2014-Jul-21 20:36N 32°58' W 052°18'0 0.0 27.5
2014-Jul-21 19:40N 32°58' W 052°18'0 4.0 27.5
2014-Jul-21 19:33N 32°58' W 052°19'0 0.0 27.5
2014-Jul-21 18:54N 32°58' W 052°19'0 1.2 27.5
2014-Jul-21 18:46N 32°58' W 052°19'1 0.8 27.5
2014-Jul-21 17:57N 32°58' W 052°18'0 0.1 27.5
2014-Jul-21 17:09N 32°58' W 052°18'0 0.3 27.6
2014-Jul-21 15:26N 32°58' W 052°18'0 0.6 27.5
2014-Jul-21 14:33N 32°57' W 052°19'0 0.0 27.5
2014-Jul-21 13:50N 32°57' W 052°19'0 0.4 27.4
2014-Jul-21 13:02N 32°57' W 052°19'0 2.1 27.4
2014-Jul-21 12:56N 32°57' W 052°19'0 4.2 27.4
2014-Jul-21 12:51N 32°57' W 052°19'1 1.5 27.4
2014-Jul-21 11:59N 32°57' W 052°20'0 0.0 27.3
2014-Jul-21 10:56N 32°57' W 052°20'1 5.4 27.2
2014-Jul-21 10:48N 32°56' W 052°19'0 0.3 27.2
2014-Jul-21 09:50N 32°56' W 052°20'0 0.0 27.2
2014-Jul-21 09:14N 32°56' W 052°20'0 0.0 27.3
2014-Jul-21 09:11N 32°56' W 052°20'011.7 27.3
2014-Jul-21 09:09N 32°56' W 052°20'0 0.0 27.3
2014-Jul-21 08:19N 32°56' W 052°20'0 1.6 27.3
2014-Jul-21 08:13N 32°56' W 052°20'0 6.3 27.3
2014-Jul-21 08:10N 32°55' W 052°20'0 0.0 27.3
2014-Jul-21 07:37N 32°55' W 052°20'0 2.9 27.3
2014-Jul-21 07:32N 32°55' W 052°20'0 0.0 27.3
2014-Jul-21 07:25N 32°55' W 052°20'1 0.8 27.4
2014-Jul-21 06:35N 32°55' W 052°19'0 1.6 27.4
2014-Jul-21 06:29N 32°55' W 052°19'0 0.0 27.4
2014-Jul-21 05:43N 32°55' W 052°19'1 0.3 27.4
2014-Jul-21 04:02N 32°54' W 052°19'1 9.5 27.5
2014-Jul-21 03:56N 32°54' W 052°18'0 0.0 27.5
2014-Jul-21 01:28N 32°54' W 052°18'0 0.0 27.7
2014-Jul-21 01:25N 32°54' W 052°18'0 0.0 27.7
2014-Jul-21 01:20N 32°54' W 052°18'0 0.5 27.7
2014-Jul-21 00:41N 32°54' W 052°18'0 9.8 27.8
2014-Jul-21 00:38N 32°54' W 052°18'0 0.0
2014-Jul-20 23:47N 32°54' W 052°18'0 1.2 27.8
2014-Jul-20 23:37N 32°54' W 052°18'0 0.1 27.8
2014-Jul-20 22:00N 32°54' W 052°18'0 0.0 28.0
2014-Jul-20 20:58N 32°54' W 052°18'0 0.3 28.0
2014-Jul-20 20:12N 32°54' W 052°18'0 0.0 28.1
2014-Jul-20 19:51N 32°54' W 052°18'1 1.0 28.1
2014-Jul-20 19:19N 32°54' W 052°18'0 1.4 28.1
2014-Jul-20 19:12N 32°54' W 052°18'0 0.0 28.1
2014-Jul-20 18:55N 32°54' W 052°18'0 0.0 28.1
2014-Jul-20 18:09N 32°54' W 052°18'0 0.4 28.0
2014-Jul-20 17:21N 32°54' W 052°18'0 3.1 28.0
2014-Jul-20 17:13N 32°53' W 052°18'0 0.0 28.0
2014-Jul-20 15:35N 32°53' W 052°18'0 0.5 27.5
2014-Jul-20 14:56N 32°53' W 052°18'0 0.0
2014-Jul-20 14:09N 32°53' W 052°18'0 0.3 27.2
2014-Jul-20 13:20N 32°53' W 052°18'0 0.9 27.0
2014-Jul-20 13:12N 32°53' W 052°18'0 0.4 27.0
2014-Jul-20 12:24N 32°53' W 052°19'120.1 26.9
2014-Jul-20 12:20N 32°52' W 052°19'0 0.1 26.9
2014-Jul-20 10:03N 32°52' W 052°19'0 0.0 26.9
2014-Jul-20 09:42N 32°52' W 052°19'0 0.0 26.9
2014-Jul-20 09:38N 32°52' W 052°19'110.2 26.9
2014-Jul-20 09:33N 32°51' W 052°19'0 0.1 26.9
2014-Jul-20 08:26N 32°51' W 052°19'1 5.5 26.8
2014-Jul-20 08:18N 32°50' W 052°19'   26.8
Track history (hours):
 
Tides and Currents Weather Stations Pressure Air Temp Water Temp Dewpoint Dewpoint Depression Visibility Wind Speed Wind Dir Waves Ship Positions

Drifting buoy 41910

Last reported at 2014-Jul-30 08:11 UTC. Time now 2014-Jul-30 09:11 UTC.
Position N 33°37' W 052°24'.

Water temperature 27.6 ° C

Date/timePositionNaut miles runAvg speedWind from/ knotsBaromVisibWave heightAir tempDewpointWater temp
2014-Jul-30 08:11N 33°37' W 052°24'0 0.0 27.6
2014-Jul-30 07:13N 33°37' W 052°24'1 1.6 27.6
2014-Jul-30 06:28N 33°36' W 052°23'0 0.0 27.6
2014-Jul-29 20:38N 33°36' W 052°23'0 0.2 28.1
2014-Jul-29 19:52N 33°36' W 052°23'1 0.6 28.1
2014-Jul-29 18:53N 33°36' W 052°23'0 0.0 28.2
2014-Jul-29 18:05N 33°36' W 052°23'475.1 28.2
2014-Jul-29 18:02N 33°32' W 052°22'0 0.0
2014-Jul-29 10:54N 33°32' W 052°21'0 0.0 27.6
2014-Jul-29 10:00N 33°32' W 052°21'0 0.3 27.6
2014-Jul-29 09:14N 33°32' W 052°21'0 0.1 27.6
2014-Jul-29 08:23N 33°32' W 052°21'0 3.8 27.6
2014-Jul-29 08:18N 33°32' W 052°22'0 0.0 27.6
2014-Jul-29 07:38N 33°32' W 052°22'1 1.0 27.7
2014-Jul-29 06:46N 33°31' W 052°21'1 9.5 27.7
2014-Jul-29 06:38N 33°30' W 052°21'0 0.0 27.7
2014-Jul-28 21:03N 33°30' W 052°21'0 0.3 30.2
2014-Jul-28 20:02N 33°30' W 052°21'0 0.6 30.6
2014-Jul-28 19:23N 33°29' W 052°21'1 4.7 30.8
2014-Jul-28 19:15N 33°29' W 052°22'0 0.0 30.8
2014-Jul-28 18:20N 33°29' W 052°22'3 0.8 30.8
2014-Jul-28 13:57N 33°26' W 052°23'2 1.3 28.8
2014-Jul-28 12:09N 33°25' W 052°20'0 0.0 27.9
2014-Jul-28 11:16N 33°25' W 052°20'0 0.4 27.8
2014-Jul-28 10:15N 33°25' W 052°20'0 0.6 27.7
2014-Jul-28 09:45N 33°25' W 052°20'1 6.6 27.6
2014-Jul-28 09:40N 33°25' W 052°19'0 0.0 27.6
2014-Jul-28 08:51N 33°25' W 052°19'0 1.3 27.6
2014-Jul-28 08:34N 33°25' W 052°19'0 0.6 27.6
2014-Jul-28 08:28N 33°25' W 052°19'0 0.0 27.6
2014-Jul-28 07:57N 33°25' W 052°19'0 0.0 27.7
2014-Jul-28 07:45N 33°25' W 052°19'0 0.0
2014-Jul-28 07:09N 33°25' W 052°19'0 0.0 27.8
2014-Jul-28 06:57N 33°25' W 052°19'0 1.6 27.8
2014-Jul-28 06:50N 33°25' W 052°19'0 0.0 27.8
2014-Jul-28 06:09N 33°25' W 052°19'1 6.1 27.8
2014-Jul-28 06:02N 33°26' W 052°20'0 0.0 27.8
2014-Jul-28 05:59N 33°26' W 052°20'0 0.1 27.8
2014-Jul-28 04:26N 33°26' W 052°20'114.1 27.9
2014-Jul-28 04:20N 33°24' W 052°21'0 0.0 27.9
2014-Jul-28 02:21N 33°24' W 052°21'0 3.1 28.0
2014-Jul-28 02:17N 33°24' W 052°21'0 0.0 28.0
2014-Jul-28 01:30N 33°24' W 052°21'1 0.6 28.3
2014-Jul-28 00:42N 33°24' W 052°21'0 1.5 28.6
2014-Jul-28 00:38N 33°24' W 052°21'1 0.6 28.6
2014-Jul-27 23:17N 33°23' W 052°21'0 1.3 28.8
2014-Jul-27 23:01N 33°23' W 052°21'1 6.0 28.9
2014-Jul-27 22:56N 33°23' W 052°21'0 0.0 28.9
2014-Jul-27 21:40N 33°23' W 052°21'1 2.6 29.3
2014-Jul-27 21:22N 33°22' W 052°20'0 0.0 29.3
2014-Jul-27 20:14N 33°22' W 052°20'1 1.5 29.6
2014-Jul-27 19:47N 33°22' W 052°21'0 4.5
2014-Jul-27 19:41N 33°22' W 052°21'0 0.0 29.7
2014-Jul-27 18:32N 33°22' W 052°21'0 3.1 29.6
2014-Jul-27 18:23N 33°21' W 052°21'0 0.0 29.6
2014-Jul-27 17:43N 33°21' W 052°21'1 0.6 29.4
2014-Jul-27 16:03N 33°20' W 052°21'1 0.9 28.8
2014-Jul-27 15:01N 33°19' W 052°21'0 0.0 28.3
2014-Jul-27 14:18N 33°19' W 052°21'1 3.3 27.9
2014-Jul-27 14:09N 33°19' W 052°21'0 0.0 27.9
2014-Jul-27 12:34N 33°19' W 052°21'0 5.9 27.4
2014-Jul-27 12:30N 33°19' W 052°20'0 0.0 27.4
2014-Jul-27 11:40N 33°19' W 052°20'125.5 27.4
2014-Jul-27 11:37N 33°18' W 052°19'0 0.0 27.4
2014-Jul-27 11:01N 33°18' W 052°19'0 0.3 27.4
2014-Jul-27 10:05N 33°19' W 052°19'0 8.4 27.4
2014-Jul-27 10:02N 33°18' W 052°20'0 0.0 27.4
2014-Jul-27 09:24N 33°18' W 052°20'1 0.8 27.4
2014-Jul-27 08:47N 33°18' W 052°19'0 4.9
2014-Jul-27 08:42N 33°19' W 052°20'0 0.0 27.4
2014-Jul-27 08:26N 33°19' W 052°20'0 0.4 27.4
2014-Jul-27 07:57N 33°19' W 052°19'0 0.0 27.4
2014-Jul-27 07:42N 33°19' W 052°19'0 0.5 27.4
2014-Jul-27 07:02N 33°19' W 052°20'0 0.0 27.4
2014-Jul-27 06:59N 33°19' W 052°20'0 0.0 27.4
2014-Jul-27 06:20N 33°19' W 052°20'1 4.4 27.4
2014-Jul-27 06:12N 33°18' W 052°20'0 0.0 27.4
2014-Jul-27 04:38N 33°18' W 052°20'1 9.1 27.5
2014-Jul-27 04:30N 33°17' W 052°21'0 0.0 27.5
2014-Jul-27 01:51N 33°17' W 052°21'0 0.6 27.6
2014-Jul-27 01:04N 33°17' W 052°21'0 0.0 27.6
2014-Jul-27 00:59N 33°17' W 052°21'1 0.7 27.6
2014-Jul-27 00:16N 33°16' W 052°22'0 0.5 27.6
2014-Jul-27 00:10N 33°16' W 052°22'0 6.5 27.6
2014-Jul-27 00:07N 33°17' W 052°21'1 1.5 27.6
2014-Jul-26 23:46N 33°16' W 052°21'0 0.0 27.6
2014-Jul-26 23:23N 33°16' W 052°21'1 5.8 27.6
2014-Jul-26 23:16N 33°15' W 052°21'1 0.5 27.6
2014-Jul-26 22:08N 33°15' W 052°21'1 1.9 27.8
2014-Jul-26 21:47N 33°14' W 052°21'1 0.4 27.8
2014-Jul-26 20:25N 33°14' W 052°21'0 0.0 27.9
2014-Jul-26 20:23N 33°14' W 052°21'1 6.3 27.9
2014-Jul-26 20:13N 33°14' W 052°22'131.3 28.0
2014-Jul-26 20:11N 33°14' W 052°21'0 0.0
2014-Jul-26 18:44N 33°14' W 052°21'0 7.0 27.9
2014-Jul-26 18:40N 33°14' W 052°20'0 0.0 27.9
2014-Jul-26 17:53N 33°14' W 052°20'0 0.2 28.0
2014-Jul-26 16:15N 33°13' W 052°20'0 2.3 27.8
2014-Jul-26 16:06N 33°13' W 052°20'0 0.0 27.8
2014-Jul-26 14:37N 33°13' W 052°20'1 5.0 27.4
2014-Jul-26 14:30N 33°13' W 052°19'0 0.2 27.4
2014-Jul-26 13:46N 33°13' W 052°19'0 0.2 27.3
2014-Jul-26 12:58N 33°13' W 052°19'0 1.5 27.2
2014-Jul-26 12:48N 33°13' W 052°19'0 0.3
2014-Jul-26 11:57N 33°13' W 052°19'0 0.0 27.2
2014-Jul-26 10:34N 33°13' W 052°19'0 1.7 27.2
2014-Jul-26 10:27N 33°13' W 052°19'0 0.0 27.2
2014-Jul-26 09:55N 33°13' W 052°19'0 0.0 27.2
2014-Jul-26 09:52N 33°13' W 052°19'0 0.1 27.2
2014-Jul-26 09:02N 33°13' W 052°19'0 0.9 27.2
2014-Jul-26 08:57N 33°13' W 052°19'0 2.0 27.2
2014-Jul-26 08:54N 33°13' W 052°19'0 8.5 27.2
2014-Jul-26 08:51N 33°12' W 052°19'0 0.0 27.2
2014-Jul-26 08:12N 33°12' W 052°19'0 0.1 27.2
2014-Jul-26 06:30N 33°12' W 052°20'1 5.0 27.2
2014-Jul-26 06:23N 33°12' W 052°20'0 0.0 27.2
2014-Jul-26 04:48N 33°12' W 052°20'219.4 27.2
2014-Jul-26 04:42N 33°10' W 052°21'0 0.0 27.2
2014-Jul-26 01:24N 33°10' W 052°21'0 0.5 27.3
2014-Jul-26 01:18N 33°10' W 052°21'0 0.5 27.3
2014-Jul-26 00:36N 33°10' W 052°21'0 9.8 27.3
2014-Jul-26 00:33N 33°10' W 052°21'2 1.0 27.3
2014-Jul-25 22:43N 33°08' W 052°20'0 0.0 27.3
2014-Jul-25 20:56N 33°08' W 052°20'110.3 27.4
2014-Jul-25 20:53N 33°08' W 052°19'0 0.0 27.4
2014-Jul-25 20:35N 33°08' W 052°19'0 0.0 27.4
2014-Jul-25 20:34N 33°08' W 052°19'1 0.4 27.4
2014-Jul-25 18:56N 33°07' W 052°19'0 0.0 27.5
2014-Jul-25 18:53N 33°07' W 052°19'0 0.4 27.5
2014-Jul-25 18:02N 33°08' W 052°18'1 0.6 27.5
2014-Jul-25 16:23N 33°08' W 052°17'0 0.3 27.4
2014-Jul-25 14:57N 33°08' W 052°18'0 0.0 27.3
2014-Jul-25 13:19N 33°08' W 052°18'0 0.0
2014-Jul-25 13:15N 33°08' W 052°18'1 7.1 27.1
2014-Jul-25 13:09N 33°08' W 052°17'1 1.0 27.1
2014-Jul-25 12:16N 33°09' W 052°18'0 0.0 27.1
2014-Jul-25 10:25N 33°09' W 052°18'0 0.3 27.0
2014-Jul-25 09:19N 33°09' W 052°18'0 1.2 27.1
2014-Jul-25 09:15N 33°09' W 052°18'0 1.0 27.1
2014-Jul-25 09:09N 33°09' W 052°18'110.7 27.1
2014-Jul-25 09:03N 33°09' W 052°19'1 3.2 27.1
2014-Jul-25 08:48N 33°09' W 052°18'1 0.6 27.1
2014-Jul-25 07:27N 33°09' W 052°19'0 0.5 27.1
2014-Jul-25 07:03N 33°08' W 052°19'0 0.0 27.1
2014-Jul-25 06:40N 33°08' W 052°19'1 8.6 27.1
2014-Jul-25 06:33N 33°08' W 052°20'0 0.0 27.1
2014-Jul-25 05:00N 33°08' W 052°20'216.5 27.1
2014-Jul-25 04:53N 33°06' W 052°20'1 0.3 27.1
2014-Jul-25 00:57N 33°05' W 052°20'0 0.0 27.2
2014-Jul-25 00:05N 33°05' W 052°20'0 0.9 27.2
2014-Jul-25 00:00N 33°05' W 052°20'2 2.1 27.2
2014-Jul-24 23:17N 33°04' W 052°19'1 7.0 27.2
2014-Jul-24 23:09N 33°04' W 052°20'1 0.6 27.2
2014-Jul-24 21:33N 33°04' W 052°19'1 1.2 27.2
2014-Jul-24 21:02N 33°04' W 052°18'1 1.4 27.2
2014-Jul-24 20:41N 33°03' W 052°18'0 0.0 27.3
2014-Jul-24 19:13N 33°03' W 052°18'0 0.0 27.3
2014-Jul-24 19:04N 33°03' W 052°18'1 0.9 27.3
2014-Jul-24 18:17N 33°04' W 052°17'2 1.0 27.3
2014-Jul-24 16:37N 33°05' W 052°16'1 0.4 27.2
2014-Jul-24 14:50N 33°05' W 052°16'0 0.6
2014-Jul-24 14:25N 33°05' W 052°16'0 0.0 27.1
2014-Jul-24 13:40N 33°05' W 052°16'2 1.9 27.0
2014-Jul-24 12:41N 33°05' W 052°19'0 0.0 27.0
2014-Jul-24 11:51N 33°05' W 052°19'0 0.0
2014-Jul-24 10:54N 33°05' W 052°19'0 0.2 26.9
2014-Jul-24 09:43N 33°05' W 052°19'0 7.0 26.9
2014-Jul-24 09:40N 33°05' W 052°19'0 0.0 26.9
2014-Jul-24 09:21N 33°05' W 052°19'0 0.0 26.9
2014-Jul-24 09:19N 33°05' W 052°19'1 0.6 26.9
2014-Jul-24 07:55N 33°04' W 052°20'0 0.0 27.0
2014-Jul-24 07:37N 33°04' W 052°20'0 6.3 27.0
2014-Jul-24 07:33N 33°04' W 052°20'1 1.1 27.0
2014-Jul-24 06:45N 33°03' W 052°20'0 0.0 27.0
2014-Jul-24 05:10N 33°03' W 052°20'215.2 27.0
2014-Jul-24 05:03N 33°02' W 052°19'0 0.0 27.0
2014-Jul-24 02:05N 33°02' W 052°19'0 4.5 27.0
2014-Jul-24 01:59N 33°02' W 052°18'0 0.5 27.0
2014-Jul-24 01:15N 33°01' W 052°18'1 0.5 27.0
2014-Jul-24 00:18N 33°01' W 052°19'1 1.4 27.0
2014-Jul-23 23:42N 33°01' W 052°18'1 5.4 27.0
2014-Jul-23 23:29N 33°01' W 052°17'0 0.0 27.0
2014-Jul-23 22:03N 33°01' W 052°17'0 0.6 27.0
2014-Jul-23 21:26N 33°01' W 052°17'0 0.2 27.0
2014-Jul-23 19:47N 33°01' W 052°17'0 0.4 27.1
2014-Jul-23 19:17N 33°01' W 052°16'115.3 27.1
2014-Jul-23 19:12N 33°03' W 052°16'0 0.0 27.1
2014-Jul-23 18:24N 33°03' W 052°16'0 0.0 27.0
2014-Jul-23 17:35N 33°03' W 052°16'1 0.6 27.1
2014-Jul-23 16:45N 33°02' W 052°16'1 0.4 27.0
2014-Jul-23 15:04N 33°03' W 052°16'2 1.9 27.0
2014-Jul-23 13:58N 33°03' W 052°19'1 1.7 26.9
2014-Jul-23 13:08N 33°03' W 052°17'1 8.5 26.9
2014-Jul-23 12:58N 33°03' W 052°19'0 0.0 26.9
2014-Jul-23 12:11N 33°03' W 052°19'0 0.0 26.9
2014-Jul-23 10:08N 33°03' W 052°19'0 0.4 26.9
2014-Jul-23 09:49N 33°03' W 052°19'0 1.1 26.9
2014-Jul-23 09:31N 33°03' W 052°19'110.3 26.9
2014-Jul-23 09:28N 33°02' W 052°19'0 0.0 26.9
2014-Jul-23 08:08N 33°02' W 052°19'0 0.8 27.0
2014-Jul-23 07:49N 33°02' W 052°20'0 4.8 27.0
2014-Jul-23 07:46N 33°02' W 052°20'0 0.0 27.0
2014-Jul-23 07:04N 33°02' W 052°20'1 4.3 27.0
2014-Jul-23 06:55N 33°01' W 052°20'0 0.0 27.0
2014-Jul-23 06:09N 33°01' W 052°20'0 0.0 27.0
2014-Jul-23 05:19N 33°01' W 052°20'217.8 27.0
2014-Jul-23 05:13N 33°00' W 052°19'0 0.0 27.0
2014-Jul-23 03:37N 33°00' W 052°19'0 0.0
2014-Jul-23 02:22N 33°00' W 052°19'111.1 27.0
2014-Jul-23 02:19N 32°60' W 052°18'0 0.6 27.0
2014-Jul-23 01:31N 33°00' W 052°19'0 0.0 27.0
2014-Jul-23 00:46N 33°00' W 052°19'0 0.4 27.1
2014-Jul-22 23:57N 32°60' W 052°18'0 1.8 27.1
2014-Jul-22 23:49N 32°60' W 052°18'0 0.0 27.1
2014-Jul-22 23:04N 32°60' W 052°18'0 2.0 27.1
2014-Jul-22 22:57N 32°60' W 052°18'0 0.1 27.1
2014-Jul-22 21:49N 32°60' W 052°18'1 0.9 27.1
2014-Jul-22 21:03N 32°60' W 052°17'1 4.9 27.1
2014-Jul-22 20:55N 32°60' W 052°18'1 5.6 27.2
2014-Jul-22 20:48N 32°60' W 052°17'0 0.0 27.2
2014-Jul-22 20:12N 32°60' W 052°17'0 7.0 27.2
2014-Jul-22 20:11N 32°60' W 052°17'0 0.2 27.2
2014-Jul-22 19:29N 32°60' W 052°17'1 0.8 27.2
2014-Jul-22 18:38N 33°00' W 052°17'0 1.2 27.2
2014-Jul-22 18:35N 33°01' W 052°17'0 0.6 27.2
2014-Jul-22 18:29N 33°00' W 052°17'0 0.3 27.2
2014-Jul-22 17:48N 33°01' W 052°18'0 0.4 27.2
2014-Jul-22 16:56N 33°01' W 052°18'0 0.0 27.2
2014-Jul-22 15:15N 33°01' W 052°18'0 0.0 27.1
2014-Jul-22 14:21N 33°01' W 052°18'210.4 27.1
2014-Jul-22 14:12N 33°01' W 052°19'0 0.0
2014-Jul-22 12:33N 33°01' W 052°19'0 0.0 27.1
2014-Jul-22 11:41N 33°01' W 052°19'1 0.4 27.1
2014-Jul-22 10:31N 33°01' W 052°20'1 2.2 27.1
2014-Jul-22 10:17N 33°01' W 052°19'1 0.9 27.1
2014-Jul-22 09:43N 33°01' W 052°20'1 9.6 27.1
2014-Jul-22 09:38N 33°01' W 052°20'0 0.2 27.1
2014-Jul-22 08:56N 33°01' W 052°20'1 0.8 27.2
2014-Jul-22 07:56N 33°00' W 052°21'0 0.0 27.2
2014-Jul-22 07:14N 33°00' W 052°21'1 5.3 27.2
2014-Jul-22 07:07N 32°59' W 052°20'0 0.0 27.2
2014-Jul-22 06:22N 32°59' W 052°20'0 3.8 27.2
2014-Jul-22 06:17N 32°59' W 052°21'0 0.0 27.2
2014-Jul-22 05:29N 32°59' W 052°21'1 0.7 27.2
2014-Jul-22 03:50N 32°58' W 052°21'231.6
2014-Jul-22 03:47N 32°58' W 052°19'0 0.0 27.4
2014-Jul-22 01:54N 32°58' W 052°19'0 0.0 27.4
2014-Jul-22 01:07N 32°58' W 052°19'0 0.3 27.4
2014-Jul-22 00:18N 32°58' W 052°19'0 0.0 27.4
2014-Jul-21 23:27N 32°58' W 052°19'0 2.3 27.5
2014-Jul-21 23:19N 32°58' W 052°18'0 0.0 27.5
2014-Jul-21 23:06N 32°58' W 052°18'0 0.0 27.5
2014-Jul-21 22:10N 32°58' W 052°18'0 0.0 27.5
2014-Jul-21 21:27N 32°58' W 052°18'0 0.7 27.5
2014-Jul-21 21:18N 32°58' W 052°18'0 0.0 27.5
2014-Jul-21 21:16N 32°58' W 052°18'0 0.2 27.5
2014-Jul-21 20:37N 32°58' W 052°18'0 7.2 27.5
2014-Jul-21 20:36N 32°58' W 052°18'0 0.0 27.5
2014-Jul-21 19:40N 32°58' W 052°18'0 4.0 27.5
2014-Jul-21 19:33N 32°58' W 052°19'0 0.0 27.5
2014-Jul-21 18:54N 32°58' W 052°19'0 1.2 27.5
2014-Jul-21 18:46N 32°58' W 052°19'1 0.8 27.5
2014-Jul-21 17:57N 32°58' W 052°18'0 0.1 27.5
2014-Jul-21 17:09N 32°58' W 052°18'0 0.3 27.6
2014-Jul-21 15:26N 32°58' W 052°18'0 0.6 27.5
2014-Jul-21 14:33N 32°57' W 052°19'0 0.0 27.5
2014-Jul-21 13:50N 32°57' W 052°19'0 0.4 27.4
2014-Jul-21 13:02N 32°57' W 052°19'0 2.1 27.4
2014-Jul-21 12:56N 32°57' W 052°19'0 4.2 27.4
2014-Jul-21 12:51N 32°57' W 052°19'1 1.5 27.4
2014-Jul-21 11:59N 32°57' W 052°20'0 0.0 27.3
2014-Jul-21 10:56N 32°57' W 052°20'1 5.4 27.2
2014-Jul-21 10:48N 32°56' W 052°19'0 0.3 27.2
2014-Jul-21 09:50N 32°56' W 052°20'0 0.0 27.2
2014-Jul-21 09:14N 32°56' W 052°20'0 0.0 27.3
2014-Jul-21 09:11N 32°56' W 052°20'011.7 27.3
2014-Jul-21 09:09N 32°56' W 052°20'0 0.0 27.3
2014-Jul-21 08:19N 32°56' W 052°20'0 1.6 27.3
2014-Jul-21 08:13N 32°56' W 052°20'0 6.3 27.3
2014-Jul-21 08:10N 32°55' W 052°20'0 0.0 27.3
2014-Jul-21 07:37N 32°55' W 052°20'0 2.9 27.3
2014-Jul-21 07:32N 32°55' W 052°20'0 0.0 27.3
2014-Jul-21 07:25N 32°55' W 052°20'1 0.8 27.4
2014-Jul-21 06:35N 32°55' W 052°19'0 1.6 27.4
2014-Jul-21 06:29N 32°55' W 052°19'0 0.0 27.4
2014-Jul-21 05:43N 32°55' W 052°19'1 0.3 27.4
2014-Jul-21 04:02N 32°54' W 052°19'1 9.5 27.5
2014-Jul-21 03:56N 32°54' W 052°18'0 0.0 27.5
2014-Jul-21 01:28N 32°54' W 052°18'0 0.0 27.7
2014-Jul-21 01:25N 32°54' W 052°18'0 0.0 27.7
2014-Jul-21 01:20N 32°54' W 052°18'0 0.5 27.7
2014-Jul-21 00:41N 32°54' W 052°18'0 9.8 27.8
2014-Jul-21 00:38N 32°54' W 052°18'0 0.0
2014-Jul-20 23:47N 32°54' W 052°18'0 1.2 27.8
2014-Jul-20 23:37N 32°54' W 052°18'0 0.1 27.8
2014-Jul-20 22:00N 32°54' W 052°18'0 0.0 28.0
2014-Jul-20 20:58N 32°54' W 052°18'0 0.3 28.0
2014-Jul-20 20:12N 32°54' W 052°18'0 0.0 28.1
2014-Jul-20 19:51N 32°54' W 052°18'1 1.0 28.1
2014-Jul-20 19:19N 32°54' W 052°18'0 1.4 28.1
2014-Jul-20 19:12N 32°54' W 052°18'0 0.0 28.1
2014-Jul-20 18:55N 32°54' W 052°18'0 0.0 28.1
2014-Jul-20 18:09N 32°54' W 052°18'0 0.4 28.0
2014-Jul-20 17:21N 32°54' W 052°18'0 3.1 28.0
2014-Jul-20 17:13N 32°53' W 052°18'0 0.0 28.0
2014-Jul-20 15:35N 32°53' W 052°18'0 0.5 27.5
2014-Jul-20 14:56N 32°53' W 052°18'0 0.0
2014-Jul-20 14:09N 32°53' W 052°18'0 0.3 27.2
2014-Jul-20 13:20N 32°53' W 052°18'0 0.9 27.0
2014-Jul-20 13:12N 32°53' W 052°18'0 0.4 27.0
2014-Jul-20 12:24N 32°53' W 052°19'120.1 26.9
2014-Jul-20 12:20N 32°52' W 052°19'0 0.1 26.9
2014-Jul-20 10:03N 32°52' W 052°19'0 0.0 26.9
2014-Jul-20 09:42N 32°52' W 052°19'0 0.0 26.9
2014-Jul-20 09:38N 32°52' W 052°19'110.2 26.9
2014-Jul-20 09:33N 32°51' W 052°19'0 0.1 26.9
2014-Jul-20 08:26N 32°51' W 052°19'1 5.5 26.8
2014-Jul-20 08:18N 32°50' W 052°19'   26.8

Dump ship's entire track history